Estiva, Brazil
Current Conditions -  °F | °C
As of 10:00 AM on Tuesday 27 Jan 2015 (Local Time) from SBSJ Reporting Station
Scattered Clouds Scattered Clouds  
Wind Chill: 79°   Ceiling: Unl
Heat Index: 81°   Visibility: 6mi
Dew Point: 66°   Wind: 2mph
Humidity: 65%   Direction: 270°W
Pressure: 30.09"   Gusts: NA
Location:  22.46°S, 46.02°W
Report Text: SBSJ 271200Z 27002KT 9999 FEW030 SCT100 26/19 Q1019
Loading
Personal Weather Stations






























Interactive Weather Map New forecast layout! Learn more

10-Day Weather Forecast

Advertisements
Track Severe Weather on mobile